Time;durP1;ratioP1;P1;durP2;ratioP2;P2;SDS_P1;SDS_P2;PMS_P1;PMS_P2;Temp;Humidity;BMP_temperature;BMP_pressure;BME280_temperature;BME280_humidity;BME280_pressure;Samples;Min_cycle;Max_cycle;Signal;HPM_P1;HPM_P2
2022/08/21 00:00:20;;;;;;;5.28;2.13;;;;;;;17.27;57.49;100060.28;4989361;28;20046;-43
2022/08/21 00:02:58;;;;;;;8.18;1.80;;;;;;;17.23;57.85;100061.28;4986732;28;20050;-38
2022/08/21 00:05:25;;;;;;;6.30;2.08;;;;;;;17.18;58.38;100053.56;4986509;28;20841;-44
2022/08/21 00:07:52;;;;;;;4.50;2.40;;;;;;;17.14;58.48;100058.03;4989721;28;20070;-41
2022/08/21 00:10:19;;;;;;;4.55;1.83;;;;;;;17.11;58.25;100055.50;4989559;28;20049;-47
2022/08/21 00:12:46;;;;;;;5.97;2.25;;;;;;;17.09;58.17;100054.69;4989829;28;20166;-44
2022/08/21 00:15:16;;;;;;;6.07;2.13;;;;;;;17.08;57.92;100063.44;4989187;28;20046;-43
2022/08/21 00:17:43;;;;;;;4.05;2.10;;;;;;;17.05;58.19;100060.88;4990235;28;20061;-42
2022/08/21 00:20:14;;;;;;;4.47;1.90;;;;;;;17.03;58.22;100049.63;4990023;28;20050;-44
2022/08/21 00:22:43;;;;;;;3.33;2.28;;;;;;;16.99;58.18;100048.00;4989161;28;20050;-39
2022/08/21 00:25:12;;;;;;;5.93;2.35;;;;;;;16.96;58.47;100048.97;4987950;28;20042;-40
2022/08/21 00:27:43;;;;;;;;;;;;;;;16.73;59.00;100041.75;4990473;28;20046;-42
2022/08/21 00:30:13;;;;;;;7.38;2.50;;;;;;;16.84;58.50;100044.94;4987712;28;19946;-40
2022/08/21 00:32:49;;;;;;;4.90;1.83;;;;;;;16.83;59.36;100043.22;4987335;28;20049;-43
2022/08/21 00:35:20;;;;;;;4.35;1.83;;;;;;;16.79;58.80;100042.44;4989744;28;20057;-39
2022/08/21 00:37:48;;;;;;;5.10;2.15;;;;;;;16.76;59.79;100037.31;4988414;28;20056;-45
2022/08/21 00:40:20;;;;;;;3.38;1.77;;;;;;;16.75;59.14;100037.34;4989795;28;20042;-44
2022/08/21 00:42:47;;;;;;;6.00;2.13;;;;;;;16.71;58.96;100031.34;4986830;28;20121;-42
2022/08/21 00:45:21;;;;;;;6.82;2.03;;;;;;;16.68;59.19;100029.69;4989767;28;20558;-41
2022/08/21 00:47:48;;;;;;;3.53;2.08;;;;;;;16.67;59.67;100027.97;4990215;28;20082;-40
2022/08/21 00:50:15;;;;;;;9.63;2.95;;;;;;;16.64;59.28;100038.50;4989611;28;20093;-40
2022/08/21 00:52:51;;;;;;;7.30;2.60;;;;;;;16.63;59.74;100036.81;4989483;28;20101;-44
2022/08/21 00:55:18;;;;;;;4.32;3.13;;;;;;;16.61;59.48;100035.97;4989877;28;20121;-43
2022/08/21 00:57:51;;;;;;;6.15;1.83;;;;;;;16.57;59.68;100031.72;4986997;28;20057;-40
2022/08/21 01:00:23;;;;;;;6.45;1.77;;;;;;;16.56;59.74;100027.41;4984568;28;20387;-40
2022/08/21 01:02:49;;;;;;;3.13;1.98;;;;;;;16.54;60.42;100034.44;5001402;28;20054;-40
2022/08/21 01:05:16;;;;;;;5.40;2.53;;;;;;;16.51;60.02;100026.69;5001690;28;20060;-39
2022/08/21 01:07:44;;;;;;;3.75;1.60;;;;;;;16.47;59.88;100025.03;5007383;28;20053;-39
2022/08/21 01:10:12;;;;;;;7.15;2.72;;;;;;;16.44;60.00;100026.84;5006127;28;20712;-43
2022/08/21 01:12:54;;;;;;;9.18;3.28;;;;;;;16.40;60.33;100025.22;5003420;28;20077;-41
2022/08/21 01:15:24;;;;;;;5.93;2.85;;;;;;;16.38;60.77;100021.78;5008253;28;20525;-43
2022/08/21 01:17:51;;;;;;;3.72;1.80;;;;;;;16.34;60.33;100020.16;5009497;28;20468;-46
2022/08/21 01:20:18;;;;;;;5.18;2.05;;;;;;;16.32;60.67;100021.97;5005954;28;20096;-46
2022/08/21 01:22:44;;;;;;;6.50;2.22;;;;;;;16.30;60.63;100028.97;5008105;28;20049;-41
2022/08/21 01:25:14;;;;;;;4.47;1.98;;;;;;;16.27;60.43;100024.69;5005179;28;20073;-42
2022/08/21 01:27:42;;;;;;;5.82;1.45;;;;;;;16.26;60.61;100017.75;5003301;28;20473;-45
2022/08/21 01:30:15;;;;;;;11.07;2.10;;;;;;;16.23;61.24;100017.84;5006539;28;20393;-40
2022/08/21 01:32:42;;;;;;;5.47;2.22;;;;;;;16.18;60.86;100012.72;5005588;28;20057;-42
2022/08/21 01:35:09;;;;;;;7.93;2.47;;;;;;;16.16;61.28;100022.38;5003673;28;20042;-44
2022/08/21 01:37:35;;;;;;;2.72;2.42;;;;;;;16.16;61.15;100022.38;5006936;28;20049;-45
2022/08/21 01:40:04;;;;;;;3.92;1.83;;;;;;;16.13;61.50;100025.06;5007224;28;20054;-38
2022/08/21 01:42:31;;;;;;;10.10;2.55;;;;;;;16.10;61.34;100012.06;5008880;28;20548;-41
2022/08/21 01:44:58;;;;;;;7.05;2.55;;;;;;;16.09;61.45;100026.03;5005849;28;20046;-41
2022/08/21 01:47:25;;;;;;;10.65;3.08;;;;;;;16.08;61.80;100019.13;5006947;28;20038;-38
2022/08/21 01:49:52;;;;;;;5.88;2.25;;;;;;;16.06;62.18;100026.13;5002362;28;20050;-42
2022/08/21 01:52:19;;;;;;;4.50;2.10;;;;;;;16.06;61.66;100015.66;5007519;28;20100;-42
2022/08/21 01:54:45;;;;;;;6.07;1.90;;;;;;;16.05;62.15;100013.97;5005277;28;20124;-43
2022/08/21 01:57:20;;;;;;;8.63;2.83;;;;;;;16.01;62.22;100018.41;5005751;28;20129;-42
2022/08/21 01:59:48;;;;;;;5.72;2.03;;;;;;;16.00;62.30;100021.91;5007689;28;20466;-40
2022/08/21 02:02:15;;;;;;;7.70;2.25;;;;;;;16.00;62.47;100021.03;5008209;28;20046;-43
2022/08/21 02:04:42;;;;;;;4.85;2.00;;;;;;;15.97;62.44;100021.97;5003812;28;20061;-39
2022/08/21 02:07:10;;;;;;;4.75;1.88;;;;;;;15.96;62.22;100029.84;5005957;28;20053;-38
2022/08/21 02:09:37;;;;;;;6.05;2.20;;;;;;;15.93;62.10;100021.19;5008043;28;20050;-41
2022/08/21 02:12:05;;;;;;;6.43;3.17;;;;;;;15.91;62.49;100028.19;5008546;28;20073;-43
2022/08/21 02:14:32;;;;;;;9.10;2.70;;;;;;;15.89;62.37;100029.13;5000659;28;20046;-39
2022/08/21 02:16:59;;;;;;;8.70;2.72;;;;;;;15.88;62.58;100023.03;5007127;28;20050;-45
2022/08/21 02:19:35;;;;;;;;;;;;;;;15.63;62.81;100028.88;5006721;28;20076;-42
2022/08/21 02:22:08;;;;;;;4.15;1.92;;;;;;;15.78;62.63;100029.41;5007074;28;20008;-41
2022/08/21 02:24:36;;;;;;;9.23;2.33;;;;;;;15.80;62.81;100030.22;5006961;28;20046;-44
2022/08/21 02:27:22;;;;;;;7.53;2.60;;;;;;;15.78;62.72;100021.56;4999970;28;20050;-45
2022/08/21 02:29:54;;;;;;;9.07;2.58;;;;;;;15.77;63.22;100025.09;5000893;28;20157;-40
2022/08/21 02:32:21;;;;;;;11.40;2.63;;;;;;;15.75;63.25;100029.47;5008119;28;20064;-40
2022/08/21 02:34:48;;;;;;;6.28;1.98;;;;;;;15.74;63.48;100025.16;5006128;28;20141;-40
2022/08/21 02:37:15;;;;;;;5.22;1.75;;;;;;;15.73;63.11;100028.63;5009174;28;20053;-38
2022/08/21 02:39:42;;;;;;;11.38;2.40;;;;;;;15.73;63.33;100023.41;5008532;28;20057;-38
2022/08/21 02:42:08;;;;;;;6.43;2.50;;;;;;;15.72;63.59;100021.72;5010435;28;20471;-42
2022/08/21 02:44:35;;;;;;;9.45;2.65;;;;;;;15.71;63.51;100015.66;5011856;28;20046;-40
2022/08/21 02:47:02;;;;;;;8.25;2.78;;;;;;;15.70;63.13;100024.34;4997852;28;20046;-44
2022/08/21 02:49:28;;;;;;;6.18;2.20;;;;;;;15.69;64.07;100027.88;4992260;28;20058;-40
2022/08/21 02:51:55;;;;;;;6.20;2.70;;;;;;;15.68;63.92;100027.00;4990861;28;20050;-39
2022/08/21 02:54:22;;;;;;;9.77;1.27;;;;;;;15.66;63.86;100007.94;4992047;28;20594;-43
2022/08/21 02:56:48;;;;;;;6.68;2.33;;;;;;;15.64;64.14;100019.31;5004986;28;20054;-39
2022/08/21 02:59:15;;;;;;;5.95;1.60;;;;;;;15.63;64.40;100023.66;5008818;28;20371;-40
2022/08/21 03:01:42;;;;;;;6.50;2.33;;;;;;;15.63;64.46;100021.03;5009977;28;20057;-39
2022/08/21 03:04:08;;;;;;;8.27;2.60;;;;;;;15.60;64.18;100017.66;5008148;28;20568;-39
2022/08/21 03:06:35;;;;;;;6.72;2.03;;;;;;;15.59;64.47;100014.19;5005398;28;20053;-43
2022/08/21 03:09:03;;;;;;;7.93;2.50;;;;;;;15.59;64.59;100019.41;5008657;28;20053;-41
2022/08/21 03:11:29;;;;;;;8.00;2.60;;;;;;;15.55;64.58;100009.94;5009810;28;20104;-43
2022/08/21 03:13:56;;;;;;;8.68;3.28;;;;;;;15.54;64.56;100013.44;5008838;28;20053;-40
2022/08/21 03:16:22;;;;;;;6.88;2.67;;;;;;;15.52;65.05;100010.00;5011759;28;20046;-46
2022/08/21 03:18:49;;;;;;;9.38;3.03;;;;;;;15.51;64.87;100010.91;5010702;28;20076;-42
2022/08/21 03:21:18;;;;;;;8.55;2.72;;;;;;;15.49;64.83;100017.91;5011370;28;20385;-41
2022/08/21 03:23:46;;;;;;;10.10;2.50;;;;;;;15.47;65.15;100006.66;5009127;28;20050;-41
2022/08/21 03:26:13;;;;;;;10.00;2.83;;;;;;;15.45;65.48;100011.03;4993665;28;20046;-38
2022/08/21 03:28:41;;;;;;;7.72;2.85;;;;;;;15.42;65.38;99999.78;4991728;28;20060;-45
2022/08/21 03:31:08;;;;;;;4.97;1.33;;;;;;;15.40;65.05;100006.78;4989980;28;20436;-42
2022/08/21 03:33:35;;;;;;;7.03;2.45;;;;;;;15.38;65.21;99998.16;4992085;28;20133;-44
2022/08/21 03:36:05;;;;;;;8.63;2.38;;;;;;;15.36;65.55;99999.94;4987592;28;20046;-38
2022/08/21 03:38:34;;;;;;;8.68;2.45;;;;;;;15.37;65.15;100001.63;5007632;28;20046;-40
2022/08/21 03:41:03;;;;;;;11.05;2.92;;;;;;;15.35;65.18;99998.22;5006969;28;20049;-42
2022/08/21 03:43:31;;;;;;;7.13;2.50;;;;;;;15.32;65.47;99998.28;5009200;28;20045;-38
2022/08/21 03:46:00;;;;;;;5.28;2.63;;;;;;;15.32;65.68;99997.41;5008464;28;20053;-42
2022/08/21 03:48:27;;;;;;;7.03;2.33;;;;;;;15.30;65.80;99997.44;5006274;28;20046;-43
2022/08/21 03:50:53;;;;;;;8.57;2.88;;;;;;;15.28;65.86;100002.72;5005558;28;20112;-40
2022/08/21 03:53:21;;;;;;;4.47;2.45;;;;;;;15.28;65.48;99996.66;5005505;28;20054;-42
2022/08/21 03:55:50;;;;;;;5.82;2.30;;;;;;;15.27;65.67;99997.53;5010292;28;20054;-44
2022/08/21 03:58:20;;;;;;;7.25;3.30;;;;;;;15.25;65.83;99994.97;4999096;28;20046;-39
2022/08/21 04:00:51;;;;;;;8.73;2.67;;;;;;;15.25;65.96;99988.88;4991477;28;20101;-41
2022/08/21 04:03:19;;;;;;;11.93;2.90;;;;;;;15.24;65.91;99995.00;4974593;28;20056;-44
2022/08/21 04:05:46;;;;;;;9.80;4.30;;;;;;;15.23;65.99;99993.28;4987749;28;20042;-43
2022/08/21 04:08:14;;;;;;;5.57;2.53;;;;;;;15.23;65.67;99995.91;4990662;28;20042;-39
2022/08/21 04:10:43;;;;;;;5.25;2.35;;;;;;;15.23;66.56;99994.13;4988912;28;20054;-39
2022/08/21 04:13:11;;;;;;;8.50;2.78;;;;;;;15.22;66.06;99997.63;4987370;28;20046;-41
2022/08/21 04:15:38;;;;;;;9.32;3.10;;;;;;;15.23;66.35;99998.50;4986580;28;20054;-42
2022/08/21 04:18:05;;;;;;;10.77;3.35;;;;;;;15.22;66.33;99991.56;4991239;28;20047;-42
2022/08/21 04:20:32;;;;;;;7.63;2.28;;;;;;;15.22;66.52;99991.56;4990525;28;20047;-40
2022/08/21 04:22:59;;;;;;;6.10;1.63;;;;;;;15.21;66.79;99985.50;4988465;28;20042;-43
2022/08/21 04:25:26;;;;;;;7.65;2.38;;;;;;;15.20;66.74;99983.75;4988794;28;20042;-40
2022/08/21 04:27:53;;;;;;;4.75;2.72;;;;;;;15.22;66.27;99991.56;4992646;28;20050;-39
2022/08/21 04:30:20;;;;;;;7.25;3.00;;;;;;;15.23;66.09;99995.91;5003393;28;20073;-45
2022/08/21 04:32:54;;;;;;;8.25;2.25;;;;;;;15.26;66.23;100001.03;5009035;28;20057;-42
2022/08/21 04:35:22;;;;;;;7.80;2.65;;;;;;;15.26;66.63;100003.63;5008111;28;20107;-43
2022/08/21 04:37:49;;;;;;;9.45;2.30;;;;;;;15.26;66.85;100006.25;5009664;28;20046;-44
2022/08/21 04:40:18;;;;;;;6.63;2.88;;;;;;;15.26;66.83;99999.28;5009008;28;20050;-41
2022/08/21 04:45:28;;;;;;;8.20;1.65;;;;;;;15.28;66.74;100005.34;5046191;28;20387;-40
2022/08/21 04:47:58;;;;;;;11.95;1.95;;;;;;;15.29;66.78;100011.41;5026323;28;20053;-39
2022/08/21 04:50:34;;;;;;;11.85;1.88;;;;;;;15.29;66.70;100009.66;5024507;28;20328;-41
2022/08/21 04:53:00;;;;;;;4.90;1.52;;;;;;;15.31;67.01;100009.63;5025772;28;20050;-41
2022/08/21 04:55:28;;;;;;;7.90;1.73;;;;;;;15.32;66.95;100013.94;5024870;28;20565;-43
2022/08/21 04:57:56;;;;;;;8.35;1.58;;;;;;;15.33;67.17;100010.44;5025122;28;20058;-42
2022/08/21 05:00:25;;;;;;;10.70;1.70;;;;;;;15.33;67.53;100010.44;5025964;28;21127;-41
2022/08/21 05:02:56;;;;;;;9.45;2.00;;;;;;;15.34;67.36;100017.38;5021104;28;20049;-42
2022/08/21 05:05:23;;;;;;;9.75;2.25;;;;;;;15.34;67.42;100017.38;5024751;28;20069;-42
2022/08/21 05:07:50;;;;;;;7.43;1.42;;;;;;;15.36;67.00;100023.41;5025040;28;20503;-41
2022/08/21 05:10:17;;;;;;;6.38;1.38;;;;;;;15.37;67.36;100027.72;5024943;28;20121;-39
2022/08/21 05:12:44;;;;;;;10.30;1.23;;;;;;;15.39;67.51;100025.09;5025814;28;20046;-39
2022/08/21 05:15:11;;;;;;;5.80;1.52;;;;;;;15.40;67.30;100037.25;5025700;28;20130;-45
2022/08/21 05:17:40;;;;;;;8.50;1.65;;;;;;;15.41;67.49;100039.81;5024855;28;20413;-42
2022/08/21 05:20:09;;;;;;;11.85;2.03;;;;;;;15.44;67.53;100038.03;5021544;28;20046;-42
2022/08/21 05:22:36;;;;;;;9.65;1.73;;;;;;;15.45;67.45;100044.97;5023138;28;20521;-40
2022/08/21 05:25:03;;;;;;;9.25;1.77;;;;;;;15.47;67.14;100037.97;5024586;28;20123;-43
2022/08/21 05:27:36;;;;;;;10.38;1.85;;;;;;;15.51;67.03;100047.44;5025571;28;20057;-40
2022/08/21 05:30:07;;;;;;;7.05;2.13;;;;;;;15.54;67.48;100044.78;5028170;28;20416;-43
2022/08/21 05:32:35;;;;;;;8.30;1.58;;;;;;;15.56;67.40;100048.19;5024401;28;20389;-42
2022/08/21 05:35:04;;;;;;;6.82;1.02;;;;;;;15.58;67.51;100043.81;5025235;28;20422;-41
2022/08/21 05:37:30;;;;;;;8.80;1.67;;;;;;;15.60;67.82;100049.81;5025639;28;20054;-40
2022/08/21 05:39:58;;;;;;;6.07;1.50;;;;;;;15.61;67.55;100051.56;5025138;28;20536;-41
2022/08/21 05:42:45;;;;;;;9.68;1.70;;;;;;;15.63;67.44;100049.75;5023560;28;21509;-43
2022/08/21 05:45:22;;;;;;;5.95;1.50;;;;;;;15.65;67.31;100053.22;5023456;28;20128;-42
2022/08/21 05:48:12;;;;;;;9.00;1.55;;;;;;;15.68;67.36;100058.34;5022291;28;20061;-40
2022/08/21 05:50:40;;;;;;;10.18;1.88;;;;;;;15.72;67.64;100058.25;5023902;28;20433;-40
2022/08/21 05:53:09;;;;;;;12.93;2.08;;;;;;;15.75;67.33;100052.97;5024382;28;20076;-42
2022/08/21 05:55:37;;;;;;;6.07;1.50;;;;;;;15.78;67.46;100058.13;5017704;28;20100;-40
2022/08/21 05:58:13;;;;;;;12.57;1.60;;;;;;;15.80;66.98;100066.78;5008333;28;20049;-47
2022/08/21 06:00:41;;;;;;;8.00;1.42;;;;;;;15.81;67.77;100063.28;5011866;28;20053;-41
2022/08/21 06:03:30;;;;;;;4.35;1.33;;;;;;;15.84;67.71;100065.78;5010500;28;20053;-39
2022/08/21 06:05:57;;;;;;;11.90;1.50;;;;;;;15.88;67.19;100062.22;5007991;28;20058;-40
2022/08/21 06:08:25;;;;;;;12.88;1.85;;;;;;;15.90;67.88;100057.81;5012023;28;20049;-40
2022/08/21 06:10:54;;;;;;;10.13;1.80;;;;;;;15.94;66.58;100069.03;5009857;28;20185;-40
2022/08/21 06:13:22;;;;;;;8.43;1.58;;;;;;;15.96;67.11;100062.06;5011832;28;20618;-40
2022/08/21 06:15:49;;;;;;;5.15;1.27;;;;;;;15.98;67.53;100059.41;5011336;28;20046;-39
2022/08/21 06:18:16;;;;;;;4.35;1.58;;;;;;;15.97;66.99;100065.56;5010104;28;20402;-39
2022/08/21 06:20:44;;;;;;;6.40;1.13;;;;;;;15.99;66.88;100067.22;5009138;28;20046;-45
2022/08/21 06:23:10;;;;;;;9.02;2.03;;;;;;;16.04;67.37;100074.91;5011122;28;20053;-43
2022/08/21 06:25:37;;;;;;;7.15;1.55;;;;;;;16.10;67.70;100073.91;5009866;28;20072;-39
2022/08/21 06:28:09;;;;;;;8.07;1.50;;;;;;;16.19;67.61;100082.38;5009670;28;20078;-40
2022/08/21 06:30:37;;;;;;;4.30;1.33;;;;;;;16.27;67.79;100081.31;5010768;28;20050;-38
2022/08/21 06:33:04;;;;;;;9.75;1.35;;;;;;;16.39;67.87;100075.78;5010020;28;20050;-41
2022/08/21 06:35:31;;;;;;;5.95;1.63;;;;;;;16.51;66.98;100074.59;5009073;28;20037;-38
2022/08/21 06:37:58;;;;;;;7.03;1.10;;;;;;;16.66;67.71;100078.56;5010060;28;20050;-43
2022/08/21 06:40:26;;;;;;;5.68;1.23;;;;;;;16.81;67.57;100072.03;5010542;28;20068;-40
2022/08/21 06:42:56;;;;;;;7.30;1.60;;;;;;;16.99;67.25;100074.16;5010537;28;20441;-40
2022/08/21 06:45:24;;;;;;;3.47;1.85;;;;;;;17.08;67.06;100069.56;5009725;28;20128;-46
2022/08/21 06:47:53;;;;;;;5.00;1.15;;;;;;;17.18;66.99;100064.03;5009517;28;20049;-49
2022/08/21 06:50:20;;;;;;;6.93;1.50;;;;;;;17.25;66.85;100055.09;5010330;28;20038;-41
2022/08/21 06:52:47;;;;;;;10.85;1.52;;;;;;;17.31;66.38;100059.28;5010447;28;20042;-41
2022/08/21 06:55:14;;;;;;;5.35;1.25;;;;;;;17.35;66.34;100053.06;5010487;28;20050;-42
2022/08/21 06:57:48;;;;;;;7.15;1.98;;;;;;;17.41;66.94;100049.38;5010473;28;20048;-45
2022/08/21 07:00:18;;;;;;;5.68;1.38;;;;;;;17.46;66.41;100043.09;5010868;28;20053;-41
2022/08/21 07:02:45;;;;;;;4.97;1.70;;;;;;;17.52;66.43;100042.03;5008576;28;20044;-43
2022/08/21 07:05:11;;;;;;;7.05;1.33;;;;;;;17.58;65.98;100046.22;5007075;28;20046;-38
2022/08/21 07:07:45;;;;;;;8.32;1.67;;;;;;;17.75;66.63;100042.22;5008966;28;20053;-41
2022/08/21 07:10:12;;;;;;;8.85;1.30;;;;;;;18.32;66.50;100049.94;5008391;28;20050;-40
2022/08/21 07:12:49;;;;;;;5.50;1.45;;;;;;;18.92;65.57;100053.94;5008786;28;20054;-43
2022/08/21 07:15:16;;;;;;;7.60;1.63;;;;;;;19.29;64.54;100051.69;5009322;28;20100;-39
2022/08/21 07:17:43;;;;;;;7.40;1.70;;;;;;;19.67;63.89;100045.81;5009757;28;20050;-43
2022/08/21 07:20:10;;;;;;;11.23;2.17;;;;;;;19.84;63.34;100053.88;5010534;28;20359;-40
2022/08/21 07:22:40;;;;;;;5.00;1.35;;;;;;;20.12;63.11;100057.13;5009642;28;20449;-39
2022/08/21 07:25:07;;;;;;;10.25;1.48;;;;;;;20.74;62.31;100057.06;5008387;28;20071;-44
2022/08/21 07:27:34;;;;;;;10.25;2.10;;;;;;;21.26;61.93;100052.13;5009562;28;20099;-41
2022/08/21 07:30:01;;;;;;;6.10;1.17;;;;;;;21.83;60.86;100059.94;5006856;28;20460;-42
2022/08/21 07:32:27;;;;;;;7.10;1.73;;;;;;;22.42;59.63;100064.00;5008687;28;20398;-44
2022/08/21 07:34:54;;;;;;;9.55;1.70;;;;;;;23.02;58.52;100056.50;5008138;28;20054;-38
2022/08/21 07:37:21;;;;;;;6.35;1.30;;;;;;;23.45;57.21;100057.69;5008713;28;20049;-42
2022/08/21 07:39:48;;;;;;;7.32;0.93;;;;;;;23.77;56.83;100057.63;5006965;28;20068;-41
2022/08/21 07:42:16;;;;;;;7.82;1.35;;;;;;;23.98;55.80;100050.22;5010228;28;20103;-40
2022/08/21 07:44:43;;;;;;;7.18;1.35;;;;;;;24.33;55.63;100054.41;5005746;28;20045;-46
2022/08/21 07:47:09;;;;;;;6.72;1.27;;;;;;;24.67;54.50;100055.91;5009131;28;20042;-42
2022/08/21 07:49:36;;;;;;;4.32;1.23;;;;;;;24.97;53.41;100057.59;5009735;28;20042;-43
2022/08/21 07:52:03;;;;;;;4.53;1.63;;;;;;;25.24;53.03;100059.44;5009718;28;20049;-40
2022/08/21 07:54:29;;;;;;;4.90;0.80;;;;;;;25.51;52.60;100061.25;5009140;28;20049;-43
2022/08/21 07:57:00;;;;;;;3.85;1.17;;;;;;;25.97;52.31;100067.13;5009075;28;20072;-45
2022/08/21 07:59:27;;;;;;;13.00;2.72;;;;;;;26.35;51.12;100060.16;5008779;28;20457;-42
2022/08/21 08:01:54;;;;;;;5.45;0.98;;;;;;;26.69;50.13;100053.31;5009103;28;20050;-44
2022/08/21 08:04:20;;;;;;;3.88;0.93;;;;;;;27.02;49.78;100058.19;5010035;28;20497;-43
2022/08/21 08:06:52;;;;;;;8.82;1.17;;;;;;;27.20;48.44;100062.19;5007649;28;20054;-44
2022/08/21 08:09:18;;;;;;;5.07;1.30;;;;;;;27.39;47.68;100066.13;5008902;28;20049;-43
2022/08/21 08:11:45;;;;;;;5.50;1.10;;;;;;;27.56;47.01;100067.53;5007626;28;20764;-41
2022/08/21 08:14:12;;;;;;;3.85;1.05;;;;;;;27.73;46.51;100068.13;5009050;28;20097;-44
2022/08/21 08:16:38;;;;;;;3.28;1.13;;;;;;;27.76;46.05;100078.53;5009115;28;20052;-48
2022/08/21 08:19:05;;;;;;;5.72;1.05;;;;;;;27.74;45.64;100067.16;5008458;28;20049;-47
2022/08/21 08:21:33;;;;;;;5.50;1.13;;;;;;;27.76;45.40;100072.38;5009473;28;20074;-44
2022/08/21 08:24:00;;;;;;;6.45;1.10;;;;;;;27.79;44.18;100077.47;5009726;28;20064;-39
2022/08/21 08:26:45;;;;;;;4.70;0.75;;;;;;;27.74;44.08;100068.97;5005105;28;20125;-39
2022/08/21 08:29:19;;;;;;;5.53;1.52;;;;;;;27.67;44.37;100074.78;5010618;28;20050;-41
2022/08/21 08:31:45;;;;;;;4.47;0.77;;;;;;;27.79;44.69;100072.16;5008948;28;20052;-41
2022/08/21 08:34:12;;;;;;;6.15;1.20;;;;;;;27.97;43.45;100069.91;5007211;28;20100;-41
2022/08/21 08:36:51;;;;;;;4.63;1.10;;;;;;;28.22;43.15;100084.84;5005327;28;20603;-50
2022/08/21 08:39:18;;;;;;;4.72;1.15;;;;;;;28.44;43.05;100077.84;5010024;28;20054;-45
2022/08/21 08:42:04;;;;;;;3.88;0.90;;;;;;;28.66;43.21;100075.31;5006041;28;20411;-43
2022/08/21 08:44:57;;;;;;;4.32;0.70;;;;;;;28.87;42.40;100083.44;5005904;28;20155;-46
2022/08/21 08:47:26;;;;;;;4.40;1.38;;;;;;;28.95;41.64;100075.72;5008303;28;20054;-41
2022/08/21 08:50:03;;;;;;;6.60;1.17;;;;;;;29.02;40.99;100085.88;5007992;28;20895;-43
2022/08/21 08:52:34;;;;;;;4.53;1.13;;;;;;;28.98;41.83;100085.28;5003007;28;20042;-45
2022/08/21 08:57:41;;;;;;;13.27;1.83;;;;;;;28.69;40.70;100075.94;5060979;27;20368;-49
2022/08/21 09:00:11;;;;;;;3.70;1.13;;;;;;;28.61;41.24;100083.69;5018016;28;20042;-44
2022/08/21 09:02:39;;;;;;;;;;;;;;;28.54;41.66;100082.47;5019979;28;20092;-42
2022/08/21 09:05:07;;;;;;;4.45;0.95;;;;;;;28.48;41.04;100084.63;5019203;28;19948;-43
2022/08/21 09:21:37;;;;;;;6.10;1.33;;;;;;;27.11;42.42;100084.09;5065917;28;20383;-42
2022/08/21 09:29:41;;;;;;;7.72;1.80;;;;;;;27.16;43.08;100092.59;5046148;28;20381;-44
2022/08/21 09:32:18;;;;;;;8.15;1.60;;;;;;;27.22;42.75;100090.47;5031229;28;20085;-49
2022/08/21 09:35:14;;;;;;;4.28;1.58;;;;;;;27.29;42.68;100087.22;5024485;28;20099;-50
2022/08/21 09:46:00;;;;;;;3.85;1.20;;;;;;;28.02;42.67;100082.84;5115911;27;20394;-44
2022/08/21 09:48:27;;;;;;;6.60;1.52;;;;;;;28.27;41.02;100083.63;5087204;28;20052;-42
2022/08/21 09:51:10;;;;;;;8.32;2.03;;;;;;;28.39;40.92;100085.38;5064712;28;20051;-47
2022/08/21 09:53:42;;;;;;;3.92;1.30;;;;;;;28.59;41.02;100074.97;5062005;28;20048;-45
2022/08/21 10:01:55;;;;;;;5.35;1.17;;;;;;;28.18;40.78;100088.72;5056943;27;20393;-45
2022/08/21 10:04:28;;;;;;;8.50;1.80;;;;;;;28.28;41.22;100083.56;5044923;28;20095;-43
2022/08/21 10:07:05;;;;;;;3.47;1.10;;;;;;;28.22;40.64;100079.50;5027260;28;20107;-47
2022/08/21 10:09:32;;;;;;;5.40;1.40;;;;;;;28.07;40.00;100076.19;5044390;28;20041;-49
2022/08/21 10:12:15;;;;;;;4.47;1.65;;;;;;;28.29;40.85;100082.56;5046651;28;20045;-46
2022/08/21 10:20:14;;;;;;;5.68;1.63;;;;;;;28.05;38.58;100071.97;5036768;28;20913;-42
2022/08/21 10:22:58;;;;;;;7.93;1.75;;;;;;;27.75;39.18;100078.63;5022064;28;20120;-46
2022/08/21 10:31:35;;;;;;;7.32;1.52;;;;;;;27.66;39.81;100078.38;5054783;27;20390;-49
2022/08/21 10:36:52;;;;;;;5.60;2.53;;;;;;;27.80;39.93;100079.16;5049583;27;20911;-40
2022/08/21 10:49:58;;;;;;;4.60;1.27;;;;;;;27.62;39.20;100076.88;5050630;27;20394;-46
2022/08/21 11:26:47;;;;;;;4.85;1.50;;;;;;;28.58;38.20;100074.13;5026400;28;20413;-43
2022/08/21 11:29:38;;;;;;;3.38;1.23;;;;;;;28.60;38.34;100079.31;5018253;28;20046;-40
2022/08/21 11:46:27;;;;;;;4.78;1.52;;;;;;;28.61;38.94;100083.69;5082518;27;20403;-44
2022/08/21 11:49:11;;;;;;;5.32;1.23;;;;;;;28.51;38.31;100082.72;5023769;28;20057;-43
2022/08/21 11:51:46;;;;;;;7.75;1.50;;;;;;;28.34;38.58;100090.22;5040441;28;20041;-50
2022/08/21 11:57:03;;;;;;;4.97;1.52;;;;;;;28.11;39.24;100082.16;5023745;28;20405;-44
2022/08/21 11:59:38;;;;;;;3.88;1.10;;;;;;;28.11;39.28;100084.81;5021218;28;20046;-49
2022/08/21 12:04:49;;;;;;;4.40;2.03;;;;;;;28.17;39.09;100086.97;5031200;28;20392;-42
2022/08/21 12:07:29;;;;;;;3.85;1.92;;;;;;;28.25;39.16;100082.88;5003278;28;20508;-43
2022/08/21 12:09:57;;;;;;;9.32;2.55;;;;;;;28.26;39.47;100084.59;5021088;28;20057;-43
2022/08/21 12:18:28;;;;;;;3.42;0.90;;;;;;;28.22;39.13;100083.97;5064899;28;20383;-44
2022/08/21 12:24:00;;;;;;;4.85;0.90;;;;;;;28.15;38.70;100082.75;5022978;27;20398;-45
2022/08/21 12:26:32;;;;;;;4.80;1.65;;;;;;;28.17;38.63;100086.97;5016906;28;20107;-46
2022/08/21 12:29:05;;;;;;;7.32;1.95;;;;;;;28.14;38.12;100081.91;5022053;28;20041;-41
2022/08/21 12:31:32;;;;;;;8.73;1.25;;;;;;;28.15;39.33;100072.09;5015361;28;20042;-40
2022/08/21 12:34:04;;;;;;;5.88;1.25;;;;;;;28.22;38.77;100068.88;5017587;28;20054;-45
2022/08/21 12:36:43;;;;;;;4.13;0.80;;;;;;;28.23;38.82;100073.22;5015483;28;20045;-39
2022/08/21 12:39:21;;;;;;;3.50;1.52;;;;;;;28.31;38.72;100077.13;5012924;28;20053;-41
2022/08/21 12:42:13;;;;;;;4.40;1.13;;;;;;;28.35;38.77;100073.25;5015080;28;20057;-42
2022/08/21 12:50:16;;;;;;;4.35;1.40;;;;;;;28.45;38.95;100068.91;5038973;28;20398;-47
2022/08/21 12:53:05;;;;;;;6.18;2.72;;;;;;;28.48;38.13;100068.66;5021030;28;20076;-41
2022/08/21 12:55:46;;;;;;;5.72;1.42;;;;;;;28.48;38.63;100079.31;5025811;28;20049;-40
2022/08/21 12:58:28;;;;;;;6.82;1.50;;;;;;;28.40;38.75;100076.41;5025891;28;20046;-46
2022/08/21 13:01:02;;;;;;;5.70;1.17;;;;;;;28.42;39.33;100068.28;5024889;28;20045;-45
2022/08/21 13:03:30;;;;;;;5.82;1.27;;;;;;;28.53;38.89;100064.81;5022966;28;20064;-47
2022/08/21 13:05:58;;;;;;;3.10;1.25;;;;;;;28.65;38.94;100065.63;5025415;28;20127;-45
2022/08/21 13:08:27;;;;;;;5.00;1.20;;;;;;;28.61;38.44;100067.72;5025439;28;20103;-52
2022/08/21 13:11:03;;;;;;;4.43;1.23;;;;;;;28.59;37.83;100066.97;5023336;28;20058;-48
2022/08/21 13:13:42;;;;;;;2.47;1.52;;;;;;;28.64;39.10;100078.13;5022945;28;20057;-45
2022/08/21 13:16:22;;;;;;;5.50;1.30;;;;;;;28.73;38.27;100066.72;5024315;28;20053;-44
2022/08/21 13:18:58;;;;;;;3.30;0.85;;;;;;;28.84;39.06;100067.72;5023402;28;20107;-45
2022/08/21 13:21:32;;;;;;;4.80;1.73;;;;;;;28.82;37.14;100061.63;5023888;28;20096;-50
2022/08/21 13:26:56;;;;;;;3.42;1.13;;;;;;;28.82;38.83;100065.16;5063212;28;20434;-42
2022/08/21 13:29:32;;;;;;;3.55;1.02;;;;;;;28.94;38.87;100068.66;5024795;28;20363;-45
2022/08/21 13:32:02;;;;;;;2.75;0.88;;;;;;;28.99;38.33;100054.97;5024917;28;20124;-44
2022/08/21 13:34:33;;;;;;;6.13;1.38;;;;;;;29.02;37.43;100064.53;5026429;28;20136;-44
2022/08/21 13:37:04;;;;;;;5.32;1.35;;;;;;;29.07;37.61;100067.66;5024278;28;20054;-45
2022/08/21 13:39:31;;;;;;;7.00;1.98;;;;;;;29.07;38.27;100067.66;5024149;28;20081;-43
2022/08/21 13:42:00;;;;;;;4.43;1.08;;;;;;;29.02;38.36;100064.53;5025544;28;20397;-44
2022/08/21 13:47:09;;;;;;;4.18;1.10;;;;;;;28.94;37.96;100058.00;5028450;28;20395;-43
2022/08/21 13:49:38;;;;;;;3.88;1.13;;;;;;;28.98;38.25;100059.44;5008975;28;20054;-42
2022/08/21 13:52:15;;;;;;;4.18;0.65;;;;;;;29.02;37.96;100052.06;5015065;28;20048;-43
2022/08/21 13:54:44;;;;;;;6.60;1.05;;;;;;;29.10;38.01;100056.78;5040147;28;20452;-41
2022/08/21 13:57:32;;;;;;;6.07;1.65;;;;;;;29.04;37.79;100046.63;5036496;28;20100;-43